sensor_id;sensor_type;location;lat;lon;timestamp;pressure;altitude;pressure_sealevel;temperature;humidity
18652;BME280;9455;54.302;10.124;2022-09-03T00:00:36;101884.03;;;16.21;70.70
18652;BME280;9455;54.302;10.124;2022-09-03T00:03:14;101880.03;;;16.25;70.68
18652;BME280;9455;54.302;10.124;2022-09-03T00:05:46;101878.34;;;16.24;70.94
18652;BME280;9455;54.302;10.124;2022-09-03T00:08:16;101874.81;;;16.24;71.01
18652;BME280;9455;54.302;10.124;2022-09-03T00:10:50;101876.22;;;16.28;70.68
18652;BME280;9455;54.302;10.124;2022-09-03T00:13:22;101870.97;;;16.26;70.74
18652;BME280;9455;54.302;10.124;2022-09-03T00:15:50;101876.63;;;16.23;71.12
18652;BME280;9455;54.302;10.124;2022-09-03T00:18:23;101872.97;;;16.24;71.03
18652;BME280;9455;54.302;10.124;2022-09-03T00:20:55;101878.06;;;16.27;70.83
18652;BME280;9455;54.302;10.124;2022-09-03T00:23:26;101870.69;;;16.29;70.80
18652;BME280;9455;54.302;10.124;2022-09-03T00:25:59;101876.63;;;16.23;71.27
18652;BME280;9455;54.302;10.124;2022-09-03T00:28:33;101875.94;;;16.21;71.35
18652;BME280;9455;54.302;10.124;2022-09-03T00:31:08;101867.59;;;16.24;71.22
18652;BME280;9455;54.302;10.124;2022-09-03T00:33:38;101872.13;;;16.24;71.39
18652;BME280;9455;54.302;10.124;2022-09-03T00:36:12;101871.84;;;16.17;71.57
18652;BME280;9455;54.302;10.124;2022-09-03T00:38:40;101873.53;;;16.18;71.59
18652;BME280;9455;54.302;10.124;2022-09-03T00:41:09;101871.84;;;16.17;71.69
18652;BME280;9455;54.302;10.124;2022-09-03T00:43:58;101873.25;;;16.21;71.69
18652;BME280;9455;54.302;10.124;2022-09-03T00:46:34;101868.41;;;16.25;71.35
18652;BME280;9455;54.302;10.124;2022-09-03T00:49:18;101870.56;;;16.21;71.85
18652;BME280;9455;54.302;10.124;2022-09-03T00:51:57;101865.59;;;16.17;71.65
18652;BME280;9455;54.302;10.124;2022-09-03T00:54:35;101861.47;;;16.22;71.67
18652;BME280;9455;54.302;10.124;2022-09-03T00:57:16;101866.72;;;16.24;71.55
18652;BME280;9455;54.302;10.124;2022-09-03T00:59:57;101867.59;;;16.24;71.51
18652;BME280;9455;54.302;10.124;2022-09-03T01:02:31;101863.19;;;16.23;71.57
18652;BME280;9455;54.302;10.124;2022-09-03T01:05:08;101858.78;;;16.22;71.55
18652;BME280;9455;54.302;10.124;2022-09-03T01:07:40;101857.09;;;16.21;71.84
18652;BME280;9455;54.302;10.124;2022-09-03T01:10:19;101853.97;;;16.16;71.85
18652;BME280;9455;54.302;10.124;2022-09-03T01:12:55;101863.50;;;16.20;71.72
18652;BME280;9455;54.302;10.124;2022-09-03T01:15:29;101859.94;;;16.20;71.70
18652;BME280;9455;54.302;10.124;2022-09-03T01:18:09;101857.09;;;16.21;71.40
18652;BME280;9455;54.302;10.124;2022-09-03T01:20:51;101861.63;;;16.21;71.45
18652;BME280;9455;54.302;10.124;2022-09-03T01:23:37;101854.84;;;16.17;71.70
18652;BME280;9455;54.302;10.124;2022-09-03T01:26:32;101869.84;;;16.19;71.81
18652;BME280;9455;54.302;10.124;2022-09-03T01:29:11;101857.09;;;16.21;71.81
18652;BME280;9455;54.302;10.124;2022-09-03T01:31:47;101860.06;;;16.18;71.55
18652;BME280;9455;54.302;10.124;2022-09-03T01:34:19;101859.22;;;16.18;71.43
18652;BME280;9455;54.302;10.124;2022-09-03T01:36:55;101852.28;;;16.15;71.67
18652;BME280;9455;54.302;10.124;2022-09-03T01:39:29;101865.06;;;16.13;71.72
18652;BME280;9455;54.302;10.124;2022-09-03T01:42:03;101857.94;;;16.12;71.60
18652;BME280;9455;54.302;10.124;2022-09-03T01:44:56;101861.63;;;16.11;71.79
18652;BME280;9455;54.302;10.124;2022-09-03T01:47:40;101861.63;;;16.11;71.80
18652;BME280;9455;54.302;10.124;2022-09-03T01:50:16;101862.50;;;16.12;71.41
18652;BME280;9455;54.302;10.124;2022-09-03T01:52:54;101855.97;;;16.14;71.30
18652;BME280;9455;54.302;10.124;2022-09-03T01:55:30;101856.66;;;16.16;71.25
18652;BME280;9455;54.302;10.124;2022-09-03T01:57:59;101853.84;;;16.08;71.27
18652;BME280;9455;54.302;10.124;2022-09-03T02:00:30;101850.03;;;16.01;71.71
18652;BME280;9455;54.302;10.124;2022-09-03T02:03:01;101847.78;;;16.06;71.55
18652;BME280;9455;54.302;10.124;2022-09-03T02:05:30;101853.72;;;16.00;71.62
18652;BME280;9455;54.302;10.124;2022-09-03T02:07:58;101847.63;;;15.98;71.82
18652;BME280;9455;54.302;10.124;2022-09-03T02:10:27;101845.19;;;15.95;71.70
18652;BME280;9455;54.302;10.124;2022-09-03T02:12:58;101855.97;;;15.95;71.46
18652;BME280;9455;54.302;10.124;2022-09-03T02:15:26;101850.56;;;15.95;71.33
18652;BME280;9455;54.302;10.124;2022-09-03T02:18:00;101853.84;;;15.99;71.40
18652;BME280;9455;54.302;10.124;2022-09-03T02:20:28;101853.84;;;15.99;71.75
18652;BME280;9455;54.302;10.124;2022-09-03T02:22:56;101850.56;;;15.95;71.61
18652;BME280;9455;54.302;10.124;2022-09-03T02:25:28;101850.44;;;15.97;71.79
18652;BME280;9455;54.302;10.124;2022-09-03T02:27:56;101845.78;;;15.99;71.04
18652;BME280;9455;54.302;10.124;2022-09-03T02:30:24;101848.16;;;15.92;71.35
18652;BME280;9455;54.302;10.124;2022-09-03T02:32:50;101843.78;;;15.91;71.36
18652;BME280;9455;54.302;10.124;2022-09-03T02:35:18;101849.31;;;15.90;71.18
18652;BME280;9455;54.302;10.124;2022-09-03T02:37:45;101846.63;;;15.90;71.37
18652;BME280;9455;54.302;10.124;2022-09-03T02:40:12;101841.38;;;15.88;71.38
18652;BME280;9455;54.302;10.124;2022-09-03T02:42:39;101833.03;;;15.91;71.02
18652;BME280;9455;54.302;10.124;2022-09-03T02:45:12;101831.91;;;15.84;71.20
18652;BME280;9455;54.302;10.124;2022-09-03T02:47:42;101834.72;;;15.73;71.79
18652;BME280;9455;54.302;10.124;2022-09-03T02:50:10;101830.34;;;15.72;71.66
18652;BME280;9455;54.302;10.124;2022-09-03T02:52:38;101825.53;;;15.66;71.63
18652;BME280;9455;54.302;10.124;2022-09-03T02:55:05;101821.13;;;15.65;71.92
18652;BME280;9455;54.302;10.124;2022-09-03T02:57:31;101825.66;;;15.55;72.01
18652;BME280;9455;54.302;10.124;2022-09-03T02:59:58;101822.78;;;15.47;72.31
18652;BME280;9455;54.302;10.124;2022-09-03T03:02:25;101819.53;;;15.44;72.55
18652;BME280;9455;54.302;10.124;2022-09-03T03:04:51;101825.59;;;15.36;72.91
18652;BME280;9455;54.302;10.124;2022-09-03T03:07:20;101826.31;;;15.38;72.77
18652;BME280;9455;54.302;10.124;2022-09-03T03:09:48;101825.00;;;15.23;72.98
18652;BME280;9455;54.302;10.124;2022-09-03T03:12:14;101820.72;;;15.21;73.04
18652;BME280;9455;54.302;10.124;2022-09-03T03:14:41;101820.69;;;15.11;73.17
18652;BME280;9455;54.302;10.124;2022-09-03T03:17:08;101822.97;;;15.06;73.66
18652;BME280;9455;54.302;10.124;2022-09-03T03:19:35;101827.88;;;15.01;73.99
18652;BME280;9455;54.302;10.124;2022-09-03T03:22:02;101830.25;;;14.95;74.17
18652;BME280;9455;54.302;10.124;2022-09-03T03:24:28;101824.75;;;14.96;74.09
18652;BME280;9455;54.302;10.124;2022-09-03T03:26:56;101829.94;;;14.88;74.47
18652;BME280;9455;54.302;10.124;2022-09-03T03:29:23;101833.63;;;14.87;74.36
18652;BME280;9455;54.302;10.124;2022-09-03T03:31:51;101829.22;;;14.86;74.44
18652;BME280;9455;54.302;10.124;2022-09-03T03:34:18;101827.94;;;14.81;74.69
18652;BME280;9455;54.302;10.124;2022-09-03T03:36:45;101834.13;;;14.81;74.46
18652;BME280;9455;54.302;10.124;2022-09-03T03:39:11;101830.50;;;14.82;74.54
18652;BME280;9455;54.302;10.124;2022-09-03T03:41:38;101829.50;;;14.83;74.54
18652;BME280;9455;54.302;10.124;2022-09-03T03:44:06;101831.44;;;14.81;74.48
18652;BME280;9455;54.302;10.124;2022-09-03T03:46:35;101830.50;;;14.82;74.44
18652;BME280;9455;54.302;10.124;2022-09-03T03:49:02;101836.78;;;14.72;75.02
18652;BME280;9455;54.302;10.124;2022-09-03T03:51:30;101832.81;;;14.66;75.10
18652;BME280;9455;54.302;10.124;2022-09-03T03:53:57;101841.13;;;14.63;75.36
18652;BME280;9455;54.302;10.124;2022-09-03T03:56:25;101832.56;;;14.49;75.45
18652;BME280;9455;54.302;10.124;2022-09-03T03:58:52;101841.06;;;14.54;75.37
18652;BME280;9455;54.302;10.124;2022-09-03T04:01:22;101832.63;;;14.38;76.15
18652;BME280;9455;54.302;10.124;2022-09-03T04:03:49;101838.53;;;14.32;76.34
18652;BME280;9455;54.302;10.124;2022-09-03T04:06:18;101837.81;;;14.30;76.48
18652;BME280;9455;54.302;10.124;2022-09-03T04:08:46;101844.31;;;14.27;76.65
18652;BME280;9455;54.302;10.124;2022-09-03T04:11:15;101843.09;;;14.20;76.94
18652;BME280;9455;54.302;10.124;2022-09-03T04:13:43;101854.31;;;14.14;77.21
18652;BME280;9455;54.302;10.124;2022-09-03T04:16:11;101843.53;;;14.05;77.40
18652;BME280;9455;54.302;10.124;2022-09-03T04:18:40;101846.84;;;13.97;77.81
18652;BME280;9455;54.302;10.124;2022-09-03T04:21:09;101855.75;;;13.98;77.86
18652;BME280;9455;54.302;10.124;2022-09-03T04:23:37;101847.97;;;13.95;78.03
18652;BME280;9455;54.302;10.124;2022-09-03T04:26:05;101855.00;;;13.75;78.91
18652;BME280;9455;54.302;10.124;2022-09-03T04:28:32;101856.88;;;13.84;78.55
18652;BME280;9455;54.302;10.124;2022-09-03T04:31:00;101852.06;;;13.78;78.61
18652;BME280;9455;54.302;10.124;2022-09-03T04:33:27;101857.19;;;13.70;78.91
18652;BME280;9455;54.302;10.124;2022-09-03T04:36:02;101858.91;;;13.60;79.31
18652;BME280;9455;54.302;10.124;2022-09-03T04:38:29;101861.22;;;13.64;79.12
18652;BME280;9455;54.302;10.124;2022-09-03T04:40:57;101853.91;;;13.66;79.20
18652;BME280;9455;54.302;10.124;2022-09-03T04:43:24;101860.88;;;13.58;79.54
18652;BME280;9455;54.302;10.124;2022-09-03T04:45:51;101862.56;;;13.59;79.40
18652;BME280;9455;54.302;10.124;2022-09-03T04:48:20;101866.25;;;13.58;79.44
18652;BME280;9455;54.302;10.124;2022-09-03T04:50:47;101858.31;;;13.56;79.51
18652;BME280;9455;54.302;10.124;2022-09-03T04:53:15;101859.44;;;13.43;79.96
18652;BME280;9455;54.302;10.124;2022-09-03T04:55:41;101867.09;;;13.47;80.00
18652;BME280;9455;54.302;10.124;2022-09-03T04:58:08;101862.72;;;13.46;79.71
18652;BME280;9455;54.302;10.124;2022-09-03T05:00:35;101862.72;;;13.46;80.11
18652;BME280;9455;54.302;10.124;2022-09-03T05:03:02;101863.59;;;13.47;79.91
18652;BME280;9455;54.302;10.124;2022-09-03T05:05:29;101866.28;;;13.36;80.02
18652;BME280;9455;54.302;10.124;2022-09-03T05:07:57;101866.03;;;13.39;80.21
18652;BME280;9455;54.302;10.124;2022-09-03T05:10:27;101868.09;;;13.46;80.67
18652;BME280;9455;54.302;10.124;2022-09-03T05:12:58;101868.59;;;13.40;80.47
18652;BME280;9455;54.302;10.124;2022-09-03T05:15:24;101869.22;;;13.33;81.05
18652;BME280;9455;54.302;10.124;2022-09-03T05:17:55;101871.38;;;13.39;81.02
18652;BME280;9455;54.302;10.124;2022-09-03T05:20:22;101883.06;;;13.49;80.61
18652;BME280;9455;54.302;10.124;2022-09-03T05:22:49;101879.06;;;13.43;80.96
18652;BME280;9455;54.302;10.124;2022-09-03T05:25:16;101877.59;;;13.50;80.74
18652;BME280;9455;54.302;10.124;2022-09-03T05:27:44;101884.63;;;13.51;81.05
18652;BME280;9455;54.302;10.124;2022-09-03T05:30:11;101883.53;;;13.65;80.60
18652;BME280;9455;54.302;10.124;2022-09-03T05:32:38;101880.59;;;13.68;80.75
18652;BME280;9455;54.302;10.124;2022-09-03T05:35:06;101876.97;;;13.89;80.00
18652;BME280;9455;54.302;10.124;2022-09-03T05:37:33;101878.53;;;14.03;79.83
18652;BME280;9455;54.302;10.124;2022-09-03T05:40:00;101874.66;;;14.17;79.47
18652;BME280;9455;54.302;10.124;2022-09-03T05:42:26;101875.38;;;14.30;79.47
18652;BME280;9455;54.302;10.124;2022-09-03T05:44:54;101875.19;;;14.42;79.08
18652;BME280;9455;54.302;10.124;2022-09-03T05:47:21;101876.50;;;14.48;78.61
18652;BME280;9455;54.302;10.124;2022-09-03T05:49:48;101885.72;;;14.55;78.61
18652;BME280;9455;54.302;10.124;2022-09-03T05:52:14;101876.88;;;14.64;77.60
18652;BME280;9455;54.302;10.124;2022-09-03T05:54:43;101874.78;;;14.67;77.03
18652;BME280;9455;54.302;10.124;2022-09-03T05:57:11;101867.97;;;14.84;77.17
18652;BME280;9455;54.302;10.124;2022-09-03T05:59:38;101882.81;;;14.88;76.60
18652;BME280;9455;54.302;10.124;2022-09-03T06:02:06;101881.16;;;14.96;76.03
18652;BME280;9455;54.302;10.124;2022-09-03T06:04:32;101874.69;;;15.08;75.92
18652;BME280;9455;54.302;10.124;2022-09-03T06:06:59;101877.56;;;15.16;75.31
18652;BME280;9455;54.302;10.124;2022-09-03T06:09:25;101870.75;;;15.12;76.08
18652;BME280;9455;54.302;10.124;2022-09-03T06:11:52;101875.88;;;15.25;75.00
18652;BME280;9455;54.302;10.124;2022-09-03T06:14:19;101876.75;;;15.25;74.26
18652;BME280;9455;54.302;10.124;2022-09-03T06:16:47;101876.34;;;15.30;75.01
18652;BME280;9455;54.302;10.124;2022-09-03T06:19:15;101880.59;;;15.32;73.91
18652;BME280;9455;54.302;10.124;2022-09-03T06:21:43;101883.66;;;15.48;73.96
18652;BME280;9455;54.302;10.124;2022-09-03T06:24:11;101885.50;;;15.57;73.59
18652;BME280;9455;54.302;10.124;2022-09-03T06:26:38;101886.22;;;15.50;73.97
18652;BME280;9455;54.302;10.124;2022-09-03T06:29:05;101880.97;;;15.48;73.66
18652;BME280;9455;54.302;10.124;2022-09-03T06:31:32;101889.78;;;15.69;72.58
18652;BME280;9455;54.302;10.124;2022-09-03T06:34:00;101891.47;;;15.70;72.22
18652;BME280;9455;54.302;10.124;2022-09-03T06:36:28;101886.38;;;15.67;72.38
18652;BME280;9455;54.302;10.124;2022-09-03T06:38:55;101883.69;;;15.77;72.29
18652;BME280;9455;54.302;10.124;2022-09-03T06:41:24;101885.69;;;15.75;72.19
18652;BME280;9455;54.302;10.124;2022-09-03T06:43:52;101878.03;;;15.80;71.68
18652;BME280;9455;54.302;10.124;2022-09-03T06:46:21;101883.72;;;15.86;71.37
18652;BME280;9455;54.302;10.124;2022-09-03T06:48:48;101879.47;;;15.84;70.72
18652;BME280;9455;54.302;10.124;2022-09-03T06:51:17;101885.69;;;15.84;70.12
18652;BME280;9455;54.302;10.124;2022-09-03T06:53:47;101894.19;;;15.80;70.19
18652;BME280;9455;54.302;10.124;2022-09-03T06:56:15;101893.06;;;15.82;70.75
18652;BME280;9455;54.302;10.124;2022-09-03T06:58:44;101887.38;;;15.85;69.83
18652;BME280;9455;54.302;10.124;2022-09-03T07:01:13;101887.69;;;15.82;70.06
18652;BME280;9455;54.302;10.124;2022-09-03T07:03:42;101888.25;;;15.86;69.65
18652;BME280;9455;54.302;10.124;2022-09-03T07:06:10;101890.38;;;15.82;69.66
18652;BME280;9455;54.302;10.124;2022-09-03T07:08:37;101888.78;;;15.80;69.73
18652;BME280;9455;54.302;10.124;2022-09-03T07:11:10;101899.28;;;15.83;70.20
18652;BME280;9455;54.302;10.124;2022-09-03T07:13:39;101895.31;;;15.87;70.32
18652;BME280;9455;54.302;10.124;2022-09-03T07:16:08;101898.72;;;15.98;70.83
18652;BME280;9455;54.302;10.124;2022-09-03T07:18:35;101911.75;;;16.22;69.41
18652;BME280;9455;54.302;10.124;2022-09-03T07:21:04;101899.59;;;16.37;68.95
18652;BME280;9455;54.302;10.124;2022-09-03T07:23:32;101911.94;;;16.59;68.20
18652;BME280;9455;54.302;10.124;2022-09-03T07:26:01;101908.94;;;16.71;67.87
18652;BME280;9455;54.302;10.124;2022-09-03T07:28:30;101907.34;;;16.88;66.43
18652;BME280;9455;54.302;10.124;2022-09-03T07:31:01;101902.34;;;17.02;66.84
18652;BME280;9455;54.302;10.124;2022-09-03T07:33:28;101902.28;;;17.12;66.29
18652;BME280;9455;54.302;10.124;2022-09-03T07:35:55;101899.44;;;17.13;66.08
18652;BME280;9455;54.302;10.124;2022-09-03T07:38:27;101903.16;;;17.12;65.03
18652;BME280;9455;54.302;10.124;2022-09-03T07:40:56;101902.19;;;17.04;64.53
18652;BME280;9455;54.302;10.124;2022-09-03T07:43:24;101896.34;;;17.08;64.52
18652;BME280;9455;54.302;10.124;2022-09-03T07:45:51;101897.78;;;17.03;64.61
18652;BME280;9455;54.302;10.124;2022-09-03T07:48:19;101895.94;;;17.03;66.09
18652;BME280;9455;54.302;10.124;2022-09-03T07:50:46;101885.13;;;17.13;65.86
18652;BME280;9455;54.302;10.124;2022-09-03T07:53:16;101893.09;;;17.05;64.81
18652;BME280;9455;54.302;10.124;2022-09-03T07:55:44;101890.13;;;17.08;64.56
18652;BME280;9455;54.302;10.124;2022-09-03T07:58:11;101895.34;;;17.09;63.97
18652;BME280;9455;54.302;10.124;2022-09-03T08:00:38;101896.59;;;17.15;62.85
18652;BME280;9455;54.302;10.124;2022-09-03T08:03:07;101885.53;;;17.18;62.54
18652;BME280;9455;54.302;10.124;2022-09-03T08:05:35;101887.75;;;17.22;63.54
18652;BME280;9455;54.302;10.124;2022-09-03T08:08:02;101886.38;;;17.18;62.25
18652;BME280;9455;54.302;10.124;2022-09-03T08:10:29;101884.56;;;17.36;63.24
18652;BME280;9455;54.302;10.124;2022-09-03T08:12:57;101885.44;;;17.37;60.89
18652;BME280;9455;54.302;10.124;2022-09-03T08:15:24;101877.19;;;17.38;60.70
18652;BME280;9455;54.302;10.124;2022-09-03T08:17:50;101881.31;;;17.42;61.69
18652;BME280;9455;54.302;10.124;2022-09-03T08:20:19;101891.91;;;17.53;60.16
18652;BME280;9455;54.302;10.124;2022-09-03T08:22:45;101885.16;;;17.67;60.38
18652;BME280;9455;54.302;10.124;2022-09-03T08:25:12;101882.03;;;17.62;60.38
18652;BME280;9455;54.302;10.124;2022-09-03T08:27:39;101884.38;;;17.74;59.59
18652;BME280;9455;54.302;10.124;2022-09-03T08:30:07;101887.03;;;17.84;59.55
18652;BME280;9455;54.302;10.124;2022-09-03T08:32:35;101877.69;;;17.96;59.48
18652;BME280;9455;54.302;10.124;2022-09-03T08:35:02;101874.06;;;17.87;58.42
18652;BME280;9455;54.302;10.124;2022-09-03T08:37:30;101878.31;;;17.90;57.81
18652;BME280;9455;54.302;10.124;2022-09-03T08:39:57;101876.63;;;17.89;58.06
18652;BME280;9455;54.302;10.124;2022-09-03T08:42:40;101876.41;;;18.17;60.16
18652;BME280;9455;54.302;10.124;2022-09-03T08:45:14;101878.22;;;18.34;59.95
18652;BME280;9455;54.302;10.124;2022-09-03T08:47:43;101881.91;;;18.33;55.85
18652;BME280;9455;54.302;10.124;2022-09-03T08:50:18;101878.38;;;18.33;55.85
18652;BME280;9455;54.302;10.124;2022-09-03T08:52:50;101878.78;;;18.38;56.69
18652;BME280;9455;54.302;10.124;2022-09-03T08:55:24;101878.78;;;18.38;57.90
18652;BME280;9455;54.302;10.124;2022-09-03T08:57:57;101876.91;;;18.56;57.09
18652;BME280;9455;54.302;10.124;2022-09-03T09:00:39;101873.72;;;18.60;54.06
18652;BME280;9455;54.302;10.124;2022-09-03T09:03:28;101872.63;;;18.71;55.86
18652;BME280;9455;54.302;10.124;2022-09-03T09:06:07;101881.56;;;18.71;52.53
18652;BME280;9455;54.302;10.124;2022-09-03T09:08:45;101876.56;;;18.76;53.71
18652;BME280;9455;54.302;10.124;2022-09-03T09:11:20;101874.50;;;18.78;53.18
18652;BME280;9455;54.302;10.124;2022-09-03T09:13:57;101876.91;;;18.81;52.52
18652;BME280;9455;54.302;10.124;2022-09-03T09:16:36;101865.31;;;18.89;53.53
18652;BME280;9455;54.302;10.124;2022-09-03T09:19:15;101879.25;;;19.02;52.39
18652;BME280;9455;54.302;10.124;2022-09-03T09:21:48;101867.13;;;19.14;50.91
18652;BME280;9455;54.302;10.124;2022-09-03T09:24:21;101874.97;;;19.25;52.44
18652;BME280;9455;54.302;10.124;2022-09-03T09:26:48;101879.44;;;19.34;51.68
18652;BME280;9455;54.302;10.124;2022-09-03T09:29:17;101867.41;;;19.37;49.13
18652;BME280;9455;54.302;10.124;2022-09-03T09:31:43;101865.59;;;19.45;49.81
18652;BME280;9455;54.302;10.124;2022-09-03T09:34:10;101874.56;;;19.38;49.12
18652;BME280;9455;54.302;10.124;2022-09-03T09:36:42;101863.59;;;19.47;49.61
18652;BME280;9455;54.302;10.124;2022-09-03T09:39:11;101865.75;;;19.36;48.61
18652;BME280;9455;54.302;10.124;2022-09-03T09:41:41;101873.63;;;19.63;48.17
18652;BME280;9455;54.302;10.124;2022-09-03T09:44:17;101864.66;;;19.70;50.62
18652;BME280;9455;54.302;10.124;2022-09-03T09:46:44;101872.31;;;19.83;49.04
18652;BME280;9455;54.302;10.124;2022-09-03T09:49:28;101866.38;;;19.87;48.83
18652;BME280;9455;54.302;10.124;2022-09-03T09:52:00;101872.31;;;20.07;49.25
18652;BME280;9455;54.302;10.124;2022-09-03T09:54:28;101879.66;;;20.14;49.71
18652;BME280;9455;54.302;10.124;2022-09-03T09:56:59;101865.47;;;20.12;48.45
18652;BME280;9455;54.302;10.124;2022-09-03T09:59:28;101878.66;;;20.31;47.71
18652;BME280;9455;54.302;10.124;2022-09-03T10:02:07;101869.19;;;20.27;49.72
18652;BME280;9455;54.302;10.124;2022-09-03T10:04:35;101866.78;;;20.32;48.11
18652;BME280;9455;54.302;10.124;2022-09-03T10:07:05;101864.09;;;20.40;46.97
18652;BME280;9455;54.302;10.124;2022-09-03T10:09:44;101863.59;;;20.53;48.45
18652;BME280;9455;54.302;10.124;2022-09-03T10:12:18;101857.16;;;20.46;46.65
18652;BME280;9455;54.302;10.124;2022-09-03T10:14:51;101866.97;;;20.63;47.54
18652;BME280;9455;54.302;10.124;2022-09-03T10:17:25;101862.38;;;20.55;47.98
18652;BME280;9455;54.302;10.124;2022-09-03T10:19:59;101855.28;;;20.54;47.77
18652;BME280;9455;54.302;10.124;2022-09-03T10:22:51;101853.25;;;20.32;46.67
18652;BME280;9455;54.302;10.124;2022-09-03T10:25:20;101850.56;;;20.40;47.41
18652;BME280;9455;54.302;10.124;2022-09-03T10:27:51;101843.59;;;20.38;46.37
18652;BME280;9455;54.302;10.124;2022-09-03T10:30:21;101848.19;;;20.37;47.95
18652;BME280;9455;54.302;10.124;2022-09-03T10:32:56;101847.81;;;20.32;46.70
18652;BME280;9455;54.302;10.124;2022-09-03T10:35:28;101852.25;;;20.41;47.34
18652;BME280;9455;54.302;10.124;2022-09-03T10:38:04;101849.66;;;20.64;47.42
18652;BME280;9455;54.302;10.124;2022-09-03T10:40:37;101856.13;;;20.63;46.42
18652;BME280;9455;54.302;10.124;2022-09-03T10:43:39;101851.06;;;20.36;46.75
18652;BME280;9455;54.302;10.124;2022-09-03T10:46:14;101841.91;;;20.37;48.94
18652;BME280;9455;54.302;10.124;2022-09-03T10:49:13;101846.47;;;20.28;46.94
18652;BME280;9455;54.302;10.124;2022-09-03T10:51:50;101849.53;;;20.25;47.34
18652;BME280;9455;54.302;10.124;2022-09-03T10:54:42;101843.94;;;20.43;48.02
18652;BME280;9455;54.302;10.124;2022-09-03T10:57:21;101849.50;;;20.49;47.41
18652;BME280;9455;54.302;10.124;2022-09-03T11:03:42;101835.44;;;20.62;47.93
18652;BME280;9455;54.302;10.124;2022-09-03T11:06:14;101837.94;;;20.95;46.90
18652;BME280;9455;54.302;10.124;2022-09-03T11:08:43;101832.44;;;21.19;44.49
18652;BME280;9455;54.302;10.124;2022-09-03T11:11:16;101825.28;;;21.26;43.08
18652;BME280;9455;54.302;10.124;2022-09-03T11:13:47;101831.13;;;20.91;44.04
18652;BME280;9455;54.302;10.124;2022-09-03T11:16:17;101819.63;;;20.89;43.52
18652;BME280;9455;54.302;10.124;2022-09-03T11:18:48;101830.75;;;21.10;46.67
18652;BME280;9455;54.302;10.124;2022-09-03T11:21:19;101818.22;;;21.09;42.16
18652;BME280;9455;54.302;10.124;2022-09-03T11:23:51;101822.63;;;21.10;44.46
18652;BME280;9455;54.302;10.124;2022-09-03T11:26:20;101832.22;;;21.21;45.23
18652;BME280;9455;54.302;10.124;2022-09-03T11:28:55;101811.09;;;21.08;43.12
18652;BME280;9455;54.302;10.124;2022-09-03T11:31:31;101818.53;;;21.14;43.01
18652;BME280;9455;54.302;10.124;2022-09-03T11:34:05;101813.44;;;21.19;43.67
18652;BME280;9455;54.302;10.124;2022-09-03T11:36:34;101804.50;;;21.41;44.59
18652;BME280;9455;54.302;10.124;2022-09-03T11:39:12;101802.69;;;21.56;44.78
18652;BME280;9455;54.302;10.124;2022-09-03T11:41:40;101815.31;;;21.49;43.21
18652;BME280;9455;54.302;10.124;2022-09-03T11:44:16;101807.25;;;21.64;42.91
18652;BME280;9455;54.302;10.124;2022-09-03T11:46:53;101804.66;;;21.79;43.59
18652;BME280;9455;54.302;10.124;2022-09-03T11:49:27;101809.16;;;21.55;43.33
18652;BME280;9455;54.302;10.124;2022-09-03T11:51:58;101792.38;;;21.52;43.27
18652;BME280;9455;54.302;10.124;2022-09-03T11:54:25;101802.06;;;21.54;43.53
18652;BME280;9455;54.302;10.124;2022-09-03T11:57:05;101797.53;;;21.70;42.50
18652;BME280;9455;54.302;10.124;2022-09-03T11:59:36;101795.06;;;21.60;43.38
18652;BME280;9455;54.302;10.124;2022-09-03T12:02:24;101783.09;;;21.46;43.79
18652;BME280;9455;54.302;10.124;2022-09-03T12:05:02;101793.31;;;21.36;43.79
18652;BME280;9455;54.302;10.124;2022-09-03T12:07:47;101789.56;;;21.68;43.92
18652;BME280;9455;54.302;10.124;2022-09-03T12:10:32;101782.00;;;21.86;42.23
18652;BME280;9455;54.302;10.124;2022-09-03T12:13:12;101786.00;;;21.67;43.73
18652;BME280;9455;54.302;10.124;2022-09-03T12:18:35;101782.75;;;21.80;42.18
18652;BME280;9455;54.302;10.124;2022-09-03T12:21:05;101773.25;;;21.76;43.27
18652;BME280;9455;54.302;10.124;2022-09-03T12:23:39;101783.81;;;21.94;42.97
18652;BME280;9455;54.302;10.124;2022-09-03T12:26:08;101772.59;;;22.11;41.00
18652;BME280;9455;54.302;10.124;2022-09-03T12:28:38;101771.91;;;22.32;43.46
18652;BME280;9455;54.302;10.124;2022-09-03T12:31:08;101762.13;;;22.23;44.26
18652;BME280;9455;54.302;10.124;2022-09-03T12:33:47;101760.59;;;22.43;43.03
18652;BME280;9455;54.302;10.124;2022-09-03T12:36:15;101758.38;;;22.75;42.81
18652;BME280;9455;54.302;10.124;2022-09-03T12:38:41;101760.44;;;22.88;41.60
18652;BME280;9455;54.302;10.124;2022-09-03T12:41:22;101762.50;;;22.57;41.69
18652;BME280;9455;54.302;10.124;2022-09-03T12:43:51;101763.03;;;22.38;41.69
18652;BME280;9455;54.302;10.124;2022-09-03T12:46:21;101746.31;;;22.41;41.65
18652;BME280;9455;54.302;10.124;2022-09-03T12:48:55;101768.38;;;22.46;43.75
18652;BME280;9455;54.302;10.124;2022-09-03T12:51:30;101759.19;;;22.47;43.78
18652;BME280;9455;54.302;10.124;2022-09-03T12:53:57;101761.06;;;22.46;40.90
18652;BME280;9455;54.302;10.124;2022-09-03T12:56:25;101747.81;;;22.29;42.29
18652;BME280;9455;54.302;10.124;2022-09-03T12:59:04;101757.00;;;22.28;42.76
18652;BME280;9455;54.302;10.124;2022-09-03T13:01:35;101757.09;;;22.34;40.71
18652;BME280;9455;54.302;10.124;2022-09-03T13:04:06;101753.41;;;22.50;42.66
18652;BME280;9455;54.302;10.124;2022-09-03T13:06:46;101759.31;;;22.68;41.45
18652;BME280;9455;54.302;10.124;2022-09-03T13:09:15;101756.06;;;22.35;41.64
18652;BME280;9455;54.302;10.124;2022-09-03T13:11:45;101757.78;;;22.36;41.67
18652;BME280;9455;54.302;10.124;2022-09-03T13:14:13;101752.78;;;22.40;40.93
18652;BME280;9455;54.302;10.124;2022-09-03T13:17:11;101749.38;;;22.75;40.21